createdAt,value
2023-03-01T04:08:15.742Z,31.90
2023-03-01T04:10:49.930Z,31.70
2023-03-01T04:13:24.379Z,31.80
2023-03-01T04:15:54.249Z,31.80
2023-03-01T04:18:25.322Z,31.80
2023-03-01T04:20:57.311Z,31.90
2023-03-01T04:23:26.323Z,32.00
2023-03-01T04:25:56.517Z,32.10
2023-03-01T04:28:28.509Z,32.10
2023-03-01T04:30:59.378Z,32.10
2023-03-01T04:33:28.600Z,32.10
2023-03-01T04:35:57.500Z,32.30
2023-03-01T04:38:26.408Z,32.40
2023-03-01T04:40:55.285Z,32.50
2023-03-01T04:43:24.151Z,32.70
2023-03-01T04:45:53.078Z,32.70
2023-03-01T04:48:21.936Z,32.80
2023-03-01T04:50:50.881Z,32.90
2023-03-01T04:53:20.770Z,33.00
2023-03-01T04:55:49.618Z,33.00
2023-03-01T04:58:18.583Z,33.10
2023-03-01T05:00:47.491Z,33.20
2023-03-01T05:03:20.300Z,33.30
2023-03-01T05:05:51.244Z,33.40
2023-03-01T05:08:20.569Z,33.50
2023-03-01T05:10:53.542Z,33.60
2023-03-01T05:13:23.568Z,33.70
2023-03-01T05:16:01.211Z,33.80
2023-03-01T05:18:32.488Z,33.90
2023-03-01T05:21:10.468Z,34.20
2023-03-01T05:23:40.084Z,34.30
2023-03-01T05:26:25.810Z,34.30
2023-03-01T05:29:01.018Z,34.10
2023-03-01T05:31:29.832Z,34.00
2023-03-01T05:33:58.781Z,34.10
2023-03-01T05:36:27.768Z,34.20
2023-03-01T05:38:56.867Z,34.20
2023-03-01T05:41:26.016Z,34.30
2023-03-01T05:43:54.883Z,34.40
2023-03-01T05:46:26.481Z,34.40
2023-03-01T05:48:55.336Z,34.50
2023-03-01T05:51:24.328Z,34.40
2023-03-01T05:53:53.153Z,34.40
2023-03-01T05:56:24.320Z,34.40
2023-03-01T05:58:53.200Z,34.40
2023-03-01T06:01:22.083Z,34.40
2023-03-01T06:03:51.007Z,34.40
2023-03-01T06:06:19.897Z,34.40
2023-03-01T06:08:48.819Z,34.60
2023-03-01T06:11:17.773Z,34.70
2023-03-01T06:13:47.957Z,34.80
2023-03-01T06:16:17.216Z,34.90
2023-03-01T06:18:46.083Z,35.00
2023-03-01T06:21:14.942Z,35.00
2023-03-01T06:23:43.815Z,35.20
2023-03-01T06:26:12.676Z,35.30
2023-03-01T06:28:41.541Z,35.30
2023-03-01T06:31:11.499Z,35.50
2023-03-01T06:33:40.463Z,35.50
2023-03-01T06:36:10.328Z,35.60
2023-03-01T06:38:39.312Z,35.60
2023-03-01T06:41:08.902Z,35.80
2023-03-01T06:43:37.748Z,35.90
2023-03-01T06:46:08.944Z,35.90
2023-03-01T06:48:38.316Z,35.90
2023-03-01T06:51:07.390Z,36.00
2023-03-01T06:53:36.414Z,36.00
2023-03-01T06:56:05.424Z,35.90
2023-03-01T06:58:34.312Z,35.90
2023-03-01T07:01:07.347Z,35.90
2023-03-01T07:03:36.413Z,36.00
2023-03-01T07:06:05.396Z,36.00
2023-03-01T07:08:34.324Z,36.10
2023-03-01T07:11:04.602Z,36.10
2023-03-01T07:13:33.902Z,36.20
2023-03-01T07:16:03.258Z,36.30
2023-03-01T07:18:32.133Z,36.30
2023-03-01T07:21:00.984Z,36.30
2023-03-01T07:23:32.449Z,36.10
2023-03-01T07:26:02.438Z,36.00
2023-03-01T07:28:32.456Z,35.90
2023-03-01T07:31:11.395Z,35.80
2023-03-01T07:33:40.278Z,35.80
2023-03-01T07:36:09.726Z,35.90
2023-03-01T07:38:38.577Z,35.80
2023-03-01T07:41:08.352Z,35.80
2023-03-01T07:43:37.339Z,35.80
2023-03-01T07:46:06.873Z,35.80
2023-03-01T07:48:36.423Z,36.00
2023-03-01T07:51:08.028Z,36.00
2023-03-01T07:53:40.171Z,36.00
2023-03-01T07:56:20.431Z,36.00
2023-03-01T07:58:50.657Z,36.10
2023-03-01T08:01:22.307Z,36.20
2023-03-01T08:03:51.616Z,36.20
2023-03-01T08:06:21.231Z,36.30
2023-03-01T08:08:50.160Z,36.40
2023-03-01T08:11:19.262Z,36.40
2023-03-01T08:13:51.570Z,36.30
2023-03-01T08:16:24.088Z,36.20
2023-03-01T08:18:53.029Z,36.10
2023-03-01T08:21:22.043Z,36.10
2023-03-01T08:23:50.972Z,36.00
2023-03-01T08:26:22.748Z,36.00
2023-03-01T08:28:52.363Z,36.00
2023-03-01T08:31:26.139Z,35.90
2023-03-01T08:33:58.257Z,35.80
2023-03-01T08:36:32.667Z,35.80
2023-03-01T08:39:02.320Z,35.70
2023-03-01T08:41:31.458Z,35.60
2023-03-01T08:44:03.217Z,35.60
2023-03-01T08:46:34.744Z,35.50
2023-03-01T08:49:07.840Z,35.50
2023-03-01T08:51:38.915Z,35.40
2023-03-01T08:54:09.734Z,35.30
2023-03-01T08:56:38.597Z,35.20
2023-03-01T08:59:07.599Z,34.90
2023-03-01T09:01:36.532Z,34.70
2023-03-01T09:04:05.605Z,34.50
2023-03-01T09:06:36.316Z,34.30
2023-03-01T09:09:07.398Z,34.30
2023-03-01T09:11:36.343Z,34.30
2023-03-01T09:14:08.824Z,34.30
2023-03-01T09:16:38.261Z,34.30
2023-03-01T09:19:07.247Z,34.30
2023-03-01T09:21:40.493Z,34.20
2023-03-01T09:24:17.317Z,34.20
2023-03-01T09:26:49.933Z,34.10
2023-03-01T09:29:19.144Z,34.10
2023-03-01T09:31:48.013Z,34.10
2023-03-01T09:34:25.132Z,34.10
2023-03-01T09:36:54.189Z,34.00
2023-03-01T09:39:23.138Z,34.00
2023-03-01T09:42:06.571Z,33.90
2023-03-01T09:44:52.178Z,33.80
2023-03-01T09:47:25.807Z,33.70
2023-03-01T09:50:12.786Z,33.60
2023-03-01T09:53:18.996Z,33.50
2023-03-01T09:55:54.801Z,33.50
2023-03-01T09:58:54.091Z,33.40
2023-03-01T10:01:43.578Z,33.30
2023-03-01T10:04:48.117Z,33.20
2023-03-01T10:07:51.439Z,33.10
2023-03-01T10:10:41.682Z,33.00
2023-03-01T10:14:01.667Z,32.90
2023-03-01T10:16:48.560Z,32.80
2023-03-01T10:19:29.597Z,32.80
2023-03-01T10:22:05.244Z,32.70
2023-03-01T10:24:37.774Z,32.60
2023-03-01T10:27:18.564Z,32.50
2023-03-01T10:30:13.134Z,32.40
2023-03-01T10:32:42.712Z,32.40
2023-03-01T10:35:30.869Z,32.30
2023-03-01T10:38:10.624Z,32.20
2023-03-01T10:40:59.833Z,32.10
2023-03-01T10:43:43.370Z,32.00
2023-03-01T10:46:34.611Z,31.90
2023-03-01T10:49:23.739Z,31.80
2023-03-01T10:51:54.846Z,31.70
2023-03-01T10:54:34.862Z,31.60
2023-03-01T10:57:06.366Z,31.60
2023-03-01T10:59:41.030Z,31.50
2023-03-01T11:02:25.479Z,31.40
2023-03-01T11:05:17.388Z,31.30
2023-03-01T11:07:58.737Z,31.20
2023-03-01T11:10:34.971Z,31.10
2023-03-01T11:13:22.840Z,31.00
2023-03-01T11:16:14.014Z,30.90
2023-03-01T11:18:48.264Z,30.90
2023-03-01T11:21:18.712Z,30.70
2023-03-01T11:23:49.036Z,30.70
2023-03-01T11:26:19.843Z,30.60
2023-03-01T11:28:54.298Z,30.50
2023-03-01T11:31:25.511Z,30.40
2023-03-01T11:34:13.220Z,30.30
2023-03-01T11:36:51.859Z,30.20
2023-03-01T11:39:30.881Z,30.10
2023-03-01T11:42:41.377Z,30.00
2023-03-01T11:45:13.714Z,30.00
2023-03-01T11:47:48.722Z,29.90
2023-03-01T11:50:28.922Z,29.80
2023-03-01T11:53:22.773Z,29.80
